sensor_id;sensor_type;location;lat;lon;timestamp;P1;durP1;ratioP1;P2;durP2;ratioP2
6475;SDS011;3271;51.910;5.840;2024-01-30T00:01:22;6.78;;;5.95;;
6475;SDS011;3271;51.910;5.840;2024-01-30T00:03:48;7.05;;;5.88;;
6475;SDS011;3271;51.910;5.840;2024-01-30T00:06:18;6.13;;;5.57;;
6475;SDS011;3271;51.910;5.840;2024-01-30T00:08:44;6.25;;;5.65;;
6475;SDS011;3271;51.910;5.840;2024-01-30T00:11:11;6.68;;;5.55;;
6475;SDS011;3271;51.910;5.840;2024-01-30T00:13:37;6.88;;;6.00;;
6475;SDS011;3271;51.910;5.840;2024-01-30T00:16:03;6.40;;;5.60;;
6475;SDS011;3271;51.910;5.840;2024-01-30T00:18:29;6.20;;;5.60;;
6475;SDS011;3271;51.910;5.840;2024-01-30T00:20:55;7.93;;;5.40;;
6475;SDS011;3271;51.910;5.840;2024-01-30T00:23:21;8.73;;;7.03;;
6475;SDS011;3271;51.910;5.840;2024-01-30T00:25:47;6.15;;;5.55;;
6475;SDS011;3271;51.910;5.840;2024-01-30T00:28:13;6.70;;;6.00;;
6475;SDS011;3271;51.910;5.840;2024-01-30T00:30:39;6.78;;;6.05;;
6475;SDS011;3271;51.910;5.840;2024-01-30T00:33:05;7.97;;;7.15;;
6475;SDS011;3271;51.910;5.840;2024-01-30T00:35:31;5.88;;;5.28;;
6475;SDS011;3271;51.910;5.840;2024-01-30T00:37:57;8.07;;;6.95;;
6475;SDS011;3271;51.910;5.840;2024-01-30T00:40:23;6.55;;;5.93;;
6475;SDS011;3271;51.910;5.840;2024-01-30T00:42:49;7.20;;;5.97;;
6475;SDS011;3271;51.910;5.840;2024-01-30T00:45:15;6.05;;;5.55;;
6475;SDS011;3271;51.910;5.840;2024-01-30T00:47:41;7.93;;;6.50;;
6475;SDS011;3271;51.910;5.840;2024-01-30T00:50:07;7.32;;;6.43;;
6475;SDS011;3271;51.910;5.840;2024-01-30T00:52:33;6.65;;;5.93;;
6475;SDS011;3271;51.910;5.840;2024-01-30T00:55:00;7.03;;;5.72;;
6475;SDS011;3271;51.910;5.840;2024-01-30T00:57:26;6.82;;;6.13;;
6475;SDS011;3271;51.910;5.840;2024-01-30T00:59:52;7.80;;;5.85;;
6475;SDS011;3271;51.910;5.840;2024-01-30T01:02:18;6.35;;;5.45;;
6475;SDS011;3271;51.910;5.840;2024-01-30T01:04:44;7.68;;;6.45;;
6475;SDS011;3271;51.910;5.840;2024-01-30T01:07:10;6.57;;;5.97;;
6475;SDS011;3271;51.910;5.840;2024-01-30T01:09:37;6.05;;;5.55;;
6475;SDS011;3271;51.910;5.840;2024-01-30T01:12:03;8.93;;;7.18;;
6475;SDS011;3271;51.910;5.840;2024-01-30T01:14:29;8.13;;;6.18;;
6475;SDS011;3271;51.910;5.840;2024-01-30T01:16:55;8.65;;;6.60;;
6475;SDS011;3271;51.910;5.840;2024-01-30T01:19:21;6.97;;;6.28;;
6475;SDS011;3271;51.910;5.840;2024-01-30T01:21:48;7.13;;;5.70;;
6475;SDS011;3271;51.910;5.840;2024-01-30T01:24:13;6.53;;;5.93;;
6475;SDS011;3271;51.910;5.840;2024-01-30T01:26:39;7.82;;;5.95;;
6475;SDS011;3271;51.910;5.840;2024-01-30T01:29:06;7.22;;;5.68;;
6475;SDS011;3271;51.910;5.840;2024-01-30T01:31:36;7.05;;;6.35;;
6475;SDS011;3271;51.910;5.840;2024-01-30T01:34:12;7.47;;;6.57;;
6475;SDS011;3271;51.910;5.840;2024-01-30T01:36:38;7.18;;;6.50;;
6475;SDS011;3271;51.910;5.840;2024-01-30T01:39:04;7.88;;;6.82;;
6475;SDS011;3271;51.910;5.840;2024-01-30T01:41:31;6.68;;;5.60;;
6475;SDS011;3271;51.910;5.840;2024-01-30T01:43:57;7.03;;;6.03;;
6475;SDS011;3271;51.910;5.840;2024-01-30T01:46:24;9.07;;;6.68;;
6475;SDS011;3271;51.910;5.840;2024-01-30T01:48:50;6.90;;;5.57;;
6475;SDS011;3271;51.910;5.840;2024-01-30T01:51:16;8.73;;;6.63;;
6475;SDS011;3271;51.910;5.840;2024-01-30T01:53:42;6.85;;;6.03;;
6475;SDS011;3271;51.910;5.840;2024-01-30T01:56:08;7.72;;;6.63;;
6475;SDS011;3271;51.910;5.840;2024-01-30T01:58:35;9.13;;;6.40;;
6475;SDS011;3271;51.910;5.840;2024-01-30T02:01:01;6.68;;;6.00;;
6475;SDS011;3271;51.910;5.840;2024-01-30T02:03:27;8.50;;;6.57;;
6475;SDS011;3271;51.910;5.840;2024-01-30T02:05:53;7.80;;;6.43;;
6475;SDS011;3271;51.910;5.840;2024-01-30T02:08:20;7.28;;;6.57;;
6475;SDS011;3271;51.910;5.840;2024-01-30T02:10:46;8.60;;;5.78;;
6475;SDS011;3271;51.910;5.840;2024-01-30T02:13:12;6.22;;;5.28;;
6475;SDS011;3271;51.910;5.840;2024-01-30T02:15:38;6.53;;;5.80;;
6475;SDS011;3271;51.910;5.840;2024-01-30T02:18:04;7.28;;;5.95;;
6475;SDS011;3271;51.910;5.840;2024-01-30T02:20:30;6.82;;;6.15;;
6475;SDS011;3271;51.910;5.840;2024-01-30T02:22:57;7.75;;;6.75;;
6475;SDS011;3271;51.910;5.840;2024-01-30T02:25:38;6.57;;;5.88;;
6475;SDS011;3271;51.910;5.840;2024-01-30T02:28:09;7.60;;;6.88;;
6475;SDS011;3271;51.910;5.840;2024-01-30T02:30:35;6.45;;;5.85;;
6475;SDS011;3271;51.910;5.840;2024-01-30T02:33:00;6.93;;;6.25;;
6475;SDS011;3271;51.910;5.840;2024-01-30T02:35:26;6.55;;;5.93;;
6475;SDS011;3271;51.910;5.840;2024-01-30T02:37:53;7.15;;;5.80;;
6475;SDS011;3271;51.910;5.840;2024-01-30T02:40:19;7.82;;;6.18;;
6475;SDS011;3271;51.910;5.840;2024-01-30T02:42:45;7.45;;;6.72;;
6475;SDS011;3271;51.910;5.840;2024-01-30T02:45:11;6.25;;;5.65;;
6475;SDS011;3271;51.910;5.840;2024-01-30T02:47:37;8.65;;;6.07;;
6475;SDS011;3271;51.910;5.840;2024-01-30T02:50:03;6.30;;;5.50;;
6475;SDS011;3271;51.910;5.840;2024-01-30T02:52:29;7.85;;;6.20;;
6475;SDS011;3271;51.910;5.840;2024-01-30T02:54:55;6.85;;;6.15;;
6475;SDS011;3271;51.910;5.840;2024-01-30T02:57:21;8.73;;;6.25;;
6475;SDS011;3271;51.910;5.840;2024-01-30T02:59:47;7.57;;;6.13;;
6475;SDS011;3271;51.910;5.840;2024-01-30T03:02:13;7.38;;;6.20;;
6475;SDS011;3271;51.910;5.840;2024-01-30T03:04:42;7.85;;;5.90;;
6475;SDS011;3271;51.910;5.840;2024-01-30T03:07:08;7.20;;;6.50;;
6475;SDS011;3271;51.910;5.840;2024-01-30T03:09:36;7.88;;;5.70;;
6475;SDS011;3271;51.910;5.840;2024-01-30T03:12:02;6.50;;;5.65;;
6475;SDS011;3271;51.910;5.840;2024-01-30T03:14:30;7.07;;;5.82;;
6475;SDS011;3271;51.910;5.840;2024-01-30T03:16:56;6.68;;;5.72;;
6475;SDS011;3271;51.910;5.840;2024-01-30T03:19:22;10.60;;;6.78;;
6475;SDS011;3271;51.910;5.840;2024-01-30T03:21:48;6.78;;;6.18;;
6475;SDS011;3271;51.910;5.840;2024-01-30T03:24:14;7.13;;;6.40;;
6475;SDS011;3271;51.910;5.840;2024-01-30T03:26:40;6.80;;;6.00;;
6475;SDS011;3271;51.910;5.840;2024-01-30T03:29:06;7.07;;;5.45;;
6475;SDS011;3271;51.910;5.840;2024-01-30T03:31:32;7.28;;;5.72;;
6475;SDS011;3271;51.910;5.840;2024-01-30T03:33:58;5.93;;;5.32;;
6475;SDS011;3271;51.910;5.840;2024-01-30T03:36:24;7.72;;;6.03;;
6475;SDS011;3271;51.910;5.840;2024-01-30T03:38:50;7.43;;;5.97;;
6475;SDS011;3271;51.910;5.840;2024-01-30T03:41:16;7.10;;;5.63;;
6475;SDS011;3271;51.910;5.840;2024-01-30T03:43:42;7.53;;;5.85;;
6475;SDS011;3271;51.910;5.840;2024-01-30T03:46:08;6.40;;;5.78;;
6475;SDS011;3271;51.910;5.840;2024-01-30T03:48:34;7.75;;;6.43;;
6475;SDS011;3271;51.910;5.840;2024-01-30T03:51:00;7.72;;;6.05;;
6475;SDS011;3271;51.910;5.840;2024-01-30T03:53:26;6.88;;;6.18;;
6475;SDS011;3271;51.910;5.840;2024-01-30T03:55:52;6.03;;;5.43;;
6475;SDS011;3271;51.910;5.840;2024-01-30T03:58:18;7.50;;;6.15;;
6475;SDS011;3271;51.910;5.840;2024-01-30T04:00:44;7.38;;;5.50;;
6475;SDS011;3271;51.910;5.840;2024-01-30T04:03:10;7.38;;;5.47;;
6475;SDS011;3271;51.910;5.840;2024-01-30T04:05:36;7.50;;;6.30;;
6475;SDS011;3271;51.910;5.840;2024-01-30T04:08:02;8.77;;;6.47;;
6475;SDS011;3271;51.910;5.840;2024-01-30T04:10:28;6.97;;;6.25;;
6475;SDS011;3271;51.910;5.840;2024-01-30T04:12:54;10.60;;;6.07;;
6475;SDS011;3271;51.910;5.840;2024-01-30T04:15:20;6.35;;;5.75;;
6475;SDS011;3271;51.910;5.840;2024-01-30T04:17:46;6.05;;;5.47;;
6475;SDS011;3271;51.910;5.840;2024-01-30T04:20:15;6.93;;;6.03;;
6475;SDS011;3271;51.910;5.840;2024-01-30T04:22:44;7.22;;;6.53;;
6475;SDS011;3271;51.910;5.840;2024-01-30T04:25:11;6.28;;;5.68;;
6475;SDS011;3271;51.910;5.840;2024-01-30T04:27:37;7.15;;;6.32;;
6475;SDS011;3271;51.910;5.840;2024-01-30T04:30:03;9.20;;;5.88;;
6475;SDS011;3271;51.910;5.840;2024-01-30T04:32:29;6.40;;;5.80;;
6475;SDS011;3271;51.910;5.840;2024-01-30T04:34:55;7.20;;;6.47;;
6475;SDS011;3271;51.910;5.840;2024-01-30T04:37:21;9.55;;;5.85;;
6475;SDS011;3271;51.910;5.840;2024-01-30T04:39:47;6.85;;;6.15;;
6475;SDS011;3271;51.910;5.840;2024-01-30T04:42:13;6.68;;;5.63;;
6475;SDS011;3271;51.910;5.840;2024-01-30T04:44:39;6.18;;;5.53;;
6475;SDS011;3271;51.910;5.840;2024-01-30T04:47:05;5.07;;;4.60;;
6475;SDS011;3271;51.910;5.840;2024-01-30T04:49:34;6.95;;;5.53;;
6475;SDS011;3271;51.910;5.840;2024-01-30T04:52:00;5.85;;;5.35;;
6475;SDS011;3271;51.910;5.840;2024-01-30T04:54:26;7.25;;;6.30;;
6475;SDS011;3271;51.910;5.840;2024-01-30T04:56:52;7.32;;;5.97;;
6475;SDS011;3271;51.910;5.840;2024-01-30T04:59:18;6.25;;;5.65;;
6475;SDS011;3271;51.910;5.840;2024-01-30T05:01:44;6.53;;;5.78;;
6475;SDS011;3271;51.910;5.840;2024-01-30T05:04:10;6.10;;;5.10;;
6475;SDS011;3271;51.910;5.840;2024-01-30T05:06:36;6.47;;;5.85;;
6475;SDS011;3271;51.910;5.840;2024-01-30T05:09:02;6.68;;;6.00;;
6475;SDS011;3271;51.910;5.840;2024-01-30T05:11:31;6.75;;;5.32;;
6475;SDS011;3271;51.910;5.840;2024-01-30T05:14:02;6.35;;;5.72;;
6475;SDS011;3271;51.910;5.840;2024-01-30T05:16:28;5.97;;;5.13;;
6475;SDS011;3271;51.910;5.840;2024-01-30T05:18:54;8.38;;;5.78;;
6475;SDS011;3271;51.910;5.840;2024-01-30T05:21:20;6.50;;;5.40;;
6475;SDS011;3271;51.910;5.840;2024-01-30T05:23:46;6.05;;;5.35;;
6475;SDS011;3271;51.910;5.840;2024-01-30T05:26:12;5.82;;;5.22;;
6475;SDS011;3271;51.910;5.840;2024-01-30T05:28:38;6.07;;;5.47;;
6475;SDS011;3271;51.910;5.840;2024-01-30T05:31:04;6.22;;;5.60;;
6475;SDS011;3271;51.910;5.840;2024-01-30T05:33:30;6.20;;;5.60;;
6475;SDS011;3271;51.910;5.840;2024-01-30T05:35:56;6.15;;;5.20;;
6475;SDS011;3271;51.910;5.840;2024-01-30T05:38:22;6.25;;;5.65;;
6475;SDS011;3271;51.910;5.840;2024-01-30T05:40:48;6.43;;;5.82;;
6475;SDS011;3271;51.910;5.840;2024-01-30T05:43:14;7.22;;;5.82;;
6475;SDS011;3271;51.910;5.840;2024-01-30T05:45:40;5.85;;;5.35;;
6475;SDS011;3271;51.910;5.840;2024-01-30T05:48:06;7.78;;;5.75;;
6475;SDS011;3271;51.910;5.840;2024-01-30T05:50:32;7.57;;;5.57;;
6475;SDS011;3271;51.910;5.840;2024-01-30T05:52:58;7.03;;;5.30;;
6475;SDS011;3271;51.910;5.840;2024-01-30T05:55:24;7.40;;;5.65;;
6475;SDS011;3271;51.910;5.840;2024-01-30T05:57:50;5.40;;;4.90;;
6475;SDS011;3271;51.910;5.840;2024-01-30T06:00:17;6.53;;;5.20;;
6475;SDS011;3271;51.910;5.840;2024-01-30T06:02:43;6.80;;;5.57;;
6475;SDS011;3271;51.910;5.840;2024-01-30T06:05:09;9.02;;;5.28;;
6475;SDS011;3271;51.910;5.840;2024-01-30T06:07:35;6.07;;;4.72;;
6475;SDS011;3271;51.910;5.840;2024-01-30T06:10:01;5.90;;;5.05;;
6475;SDS011;3271;51.910;5.840;2024-01-30T06:12:28;7.43;;;5.60;;
6475;SDS011;3271;51.910;5.840;2024-01-30T06:14:54;5.85;;;5.18;;
6475;SDS011;3271;51.910;5.840;2024-01-30T06:17:22;5.40;;;4.90;;
6475;SDS011;3271;51.910;5.840;2024-01-30T06:19:48;5.72;;;5.22;;
6475;SDS011;3271;51.910;5.840;2024-01-30T06:22:14;7.28;;;5.32;;
6475;SDS011;3271;51.910;5.840;2024-01-30T06:24:40;5.63;;;4.97;;
6475;SDS011;3271;51.910;5.840;2024-01-30T06:27:06;6.88;;;5.45;;
6475;SDS011;3271;51.910;5.840;2024-01-30T06:29:32;6.53;;;4.50;;
6475;SDS011;3271;51.910;5.840;2024-01-30T06:31:59;5.55;;;5.05;;
6475;SDS011;3271;51.910;5.840;2024-01-30T06:34:25;6.20;;;5.43;;
6475;SDS011;3271;51.910;5.840;2024-01-30T06:36:53;5.32;;;4.80;;
6475;SDS011;3271;51.910;5.840;2024-01-30T06:39:19;4.78;;;4.22;;
6475;SDS011;3271;51.910;5.840;2024-01-30T06:41:45;5.55;;;5.05;;
6475;SDS011;3271;51.910;5.840;2024-01-30T06:44:12;8.82;;;5.35;;
6475;SDS011;3271;51.910;5.840;2024-01-30T06:46:38;5.25;;;4.75;;
6475;SDS011;3271;51.910;5.840;2024-01-30T06:49:04;6.07;;;5.47;;
6475;SDS011;3271;51.910;5.840;2024-01-30T06:51:31;5.72;;;4.55;;
6475;SDS011;3271;51.910;5.840;2024-01-30T06:53:57;6.53;;;4.32;;
6475;SDS011;3271;51.910;5.840;2024-01-30T06:56:23;5.22;;;4.75;;
6475;SDS011;3271;51.910;5.840;2024-01-30T06:58:49;6.45;;;5.10;;
6475;SDS011;3271;51.910;5.840;2024-01-30T07:01:16;4.97;;;4.57;;
6475;SDS011;3271;51.910;5.840;2024-01-30T07:03:42;6.15;;;5.13;;
6475;SDS011;3271;51.910;5.840;2024-01-30T07:06:09;5.80;;;5.30;;
6475;SDS011;3271;51.910;5.840;2024-01-30T07:08:36;5.93;;;4.68;;
6475;SDS011;3271;51.910;5.840;2024-01-30T07:11:03;6.40;;;4.88;;
6475;SDS011;3271;51.910;5.840;2024-01-30T07:13:30;5.95;;;5.28;;
6475;SDS011;3271;51.910;5.840;2024-01-30T07:15:55;5.03;;;4.53;;
6475;SDS011;3271;51.910;5.840;2024-01-30T07:18:21;6.47;;;5.05;;
6475;SDS011;3271;51.910;5.840;2024-01-30T07:20:47;6.68;;;4.32;;
6475;SDS011;3271;51.910;5.840;2024-01-30T07:23:14;5.45;;;4.95;;
6475;SDS011;3271;51.910;5.840;2024-01-30T07:25:42;6.25;;;4.95;;
6475;SDS011;3271;51.910;5.840;2024-01-30T07:28:08;7.50;;;5.05;;
6475;SDS011;3271;51.910;5.840;2024-01-30T07:30:35;5.82;;;4.60;;
6475;SDS011;3271;51.910;5.840;2024-01-30T07:33:01;8.07;;;5.68;;
6475;SDS011;3271;51.910;5.840;2024-01-30T07:35:27;5.20;;;4.70;;
6475;SDS011;3271;51.910;5.840;2024-01-30T07:37:53;6.88;;;5.07;;
6475;SDS011;3271;51.910;5.840;2024-01-30T07:40:19;5.70;;;5.00;;
6475;SDS011;3271;51.910;5.840;2024-01-30T07:42:45;5.85;;;5.25;;
6475;SDS011;3271;51.910;5.840;2024-01-30T07:45:11;4.82;;;4.20;;
6475;SDS011;3271;51.910;5.840;2024-01-30T07:47:37;5.18;;;4.38;;
6475;SDS011;3271;51.910;5.840;2024-01-30T07:50:03;6.45;;;4.60;;
6475;SDS011;3271;51.910;5.840;2024-01-30T07:52:29;6.55;;;4.68;;
6475;SDS011;3271;51.910;5.840;2024-01-30T07:54:55;6.25;;;5.63;;
6475;SDS011;3271;51.910;5.840;2024-01-30T07:57:21;5.30;;;4.80;;
6475;SDS011;3271;51.910;5.840;2024-01-30T07:59:47;5.93;;;4.70;;
6475;SDS011;3271;51.910;5.840;2024-01-30T08:02:13;4.85;;;4.43;;
6475;SDS011;3271;51.910;5.840;2024-01-30T08:04:39;6.65;;;5.30;;
6475;SDS011;3271;51.910;5.840;2024-01-30T08:07:06;6.57;;;5.43;;
6475;SDS011;3271;51.910;5.840;2024-01-30T08:09:32;5.68;;;4.97;;
6475;SDS011;3271;51.910;5.840;2024-01-30T08:11:58;7.10;;;4.80;;
6475;SDS011;3271;51.910;5.840;2024-01-30T08:14:24;5.65;;;5.15;;
6475;SDS011;3271;51.910;5.840;2024-01-30T08:16:51;5.80;;;4.88;;
6475;SDS011;3271;51.910;5.840;2024-01-30T08:19:16;6.47;;;5.50;;
6475;SDS011;3271;51.910;5.840;2024-01-30T08:21:42;6.53;;;4.40;;
6475;SDS011;3271;51.910;5.840;2024-01-30T08:24:09;5.13;;;4.70;;
6475;SDS011;3271;51.910;5.840;2024-01-30T08:26:35;5.95;;;5.00;;
6475;SDS011;3271;51.910;5.840;2024-01-30T08:29:01;6.22;;;4.78;;
6475;SDS011;3271;51.910;5.840;2024-01-30T08:31:27;8.30;;;5.03;;
6475;SDS011;3271;51.910;5.840;2024-01-30T08:33:53;6.80;;;5.03;;
6475;SDS011;3271;51.910;5.840;2024-01-30T08:36:19;5.20;;;4.70;;
6475;SDS011;3271;51.910;5.840;2024-01-30T08:38:45;5.38;;;4.88;;
6475;SDS011;3271;51.910;5.840;2024-01-30T08:41:12;5.78;;;5.03;;
6475;SDS011;3271;51.910;5.840;2024-01-30T08:43:37;5.88;;;5.10;;
6475;SDS011;3271;51.910;5.840;2024-01-30T08:46:03;6.80;;;5.93;;
6475;SDS011;3271;51.910;5.840;2024-01-30T08:48:29;6.25;;;4.88;;
6475;SDS011;3271;51.910;5.840;2024-01-30T08:50:55;5.68;;;5.07;;
6475;SDS011;3271;51.910;5.840;2024-01-30T08:53:21;6.93;;;5.18;;
6475;SDS011;3271;51.910;5.840;2024-01-30T08:55:47;6.40;;;4.72;;
6475;SDS011;3271;51.910;5.840;2024-01-30T08:58:13;6.65;;;5.95;;
6475;SDS011;3271;51.910;5.840;2024-01-30T09:00:40;7.55;;;5.72;;
6475;SDS011;3271;51.910;5.840;2024-01-30T09:03:06;5.57;;;4.97;;
6475;SDS011;3271;51.910;5.840;2024-01-30T09:05:32;5.78;;;4.82;;
6475;SDS011;3271;51.910;5.840;2024-01-30T09:07:58;6.45;;;4.75;;
6475;SDS011;3271;51.910;5.840;2024-01-30T09:10:24;6.07;;;5.47;;
6475;SDS011;3271;51.910;5.840;2024-01-30T09:12:50;7.95;;;6.30;;
6475;SDS011;3271;51.910;5.840;2024-01-30T09:15:17;7.88;;;6.15;;
6475;SDS011;3271;51.910;5.840;2024-01-30T09:17:44;8.00;;;6.00;;
6475;SDS011;3271;51.910;5.840;2024-01-30T09:20:10;7.30;;;5.43;;
6475;SDS011;3271;51.910;5.840;2024-01-30T09:22:36;6.20;;;5.70;;
6475;SDS011;3271;51.910;5.840;2024-01-30T09:25:02;7.75;;;5.80;;
6475;SDS011;3271;51.910;5.840;2024-01-30T09:27:29;6.90;;;6.20;;
6475;SDS011;3271;51.910;5.840;2024-01-30T09:29:54;9.45;;;6.22;;
6475;SDS011;3271;51.910;5.840;2024-01-30T09:32:20;7.35;;;5.63;;
6475;SDS011;3271;51.910;5.840;2024-01-30T09:34:46;6.45;;;5.75;;
6475;SDS011;3271;51.910;5.840;2024-01-30T09:37:12;8.60;;;5.50;;
6475;SDS011;3271;51.910;5.840;2024-01-30T09:39:40;7.63;;;6.15;;
6475;SDS011;3271;51.910;5.840;2024-01-30T09:44:35;8.73;;;5.95;;
6475;SDS011;3271;51.910;5.840;2024-01-30T09:47:03;8.18;;;5.97;;
6475;SDS011;3271;51.910;5.840;2024-01-30T09:49:34;7.32;;;6.03;;
6475;SDS011;3271;51.910;5.840;2024-01-30T09:52:01;7.25;;;5.45;;
6475;SDS011;3271;51.910;5.840;2024-01-30T09:54:29;6.53;;;5.50;;
6475;SDS011;3271;51.910;5.840;2024-01-30T09:56:56;7.20;;;6.00;;
6475;SDS011;3271;51.910;5.840;2024-01-30T09:59:22;5.93;;;5.30;;
6475;SDS011;3271;51.910;5.840;2024-01-30T10:01:48;8.85;;;6.53;;
6475;SDS011;3271;51.910;5.840;2024-01-30T10:04:15;7.80;;;7.07;;
6475;SDS011;3271;51.910;5.840;2024-01-30T10:06:41;14.57;;;10.27;;
6475;SDS011;3271;51.910;5.840;2024-01-30T10:09:07;7.55;;;5.30;;
6475;SDS011;3271;51.910;5.840;2024-01-30T10:11:34;6.93;;;6.05;;
6475;SDS011;3271;51.910;5.840;2024-01-30T10:14:00;8.98;;;5.85;;
6475;SDS011;3271;51.910;5.840;2024-01-30T10:16:26;7.05;;;5.43;;
6475;SDS011;3271;51.910;5.840;2024-01-30T10:18:52;8.00;;;6.00;;
6475;SDS011;3271;51.910;5.840;2024-01-30T10:21:18;6.50;;;5.90;;
6475;SDS011;3271;51.910;5.840;2024-01-30T10:23:44;6.70;;;5.85;;
6475;SDS011;3271;51.910;5.840;2024-01-30T10:26:10;7.22;;;5.72;;
6475;SDS011;3271;51.910;5.840;2024-01-30T10:28:36;6.53;;;5.93;;
6475;SDS011;3271;51.910;5.840;2024-01-30T10:31:03;9.40;;;6.60;;
6475;SDS011;3271;51.910;5.840;2024-01-30T10:33:29;7.43;;;6.25;;
6475;SDS011;3271;51.910;5.840;2024-01-30T10:35:56;9.55;;;6.30;;
6475;SDS011;3271;51.910;5.840;2024-01-30T10:38:26;7.47;;;6.28;;
6475;SDS011;3271;51.910;5.840;2024-01-30T10:40:56;8.82;;;6.40;;
6475;SDS011;3271;51.910;5.840;2024-01-30T10:43:22;7.53;;;6.03;;
6475;SDS011;3271;51.910;5.840;2024-01-30T10:45:49;9.10;;;5.72;;
6475;SDS011;3271;51.910;5.840;2024-01-30T10:48:15;9.48;;;5.90;;
6475;SDS011;3271;51.910;5.840;2024-01-30T10:50:42;8.93;;;6.10;;
6475;SDS011;3271;51.910;5.840;2024-01-30T10:53:08;12.43;;;6.88;;
6475;SDS011;3271;51.910;5.840;2024-01-30T10:55:35;7.07;;;6.40;;
6475;SDS011;3271;51.910;5.840;2024-01-30T10:58:02;7.35;;;6.22;;
6475;SDS011;3271;51.910;5.840;2024-01-30T11:00:30;6.75;;;6.07;;
6475;SDS011;3271;51.910;5.840;2024-01-30T11:02:58;9.32;;;6.25;;
6475;SDS011;3271;51.910;5.840;2024-01-30T11:05:24;8.57;;;5.55;;
6475;SDS011;3271;51.910;5.840;2024-01-30T11:07:54;6.65;;;5.88;;
6475;SDS011;3271;51.910;5.840;2024-01-30T11:10:20;6.78;;;6.05;;
6475;SDS011;3271;51.910;5.840;2024-01-30T11:12:46;8.68;;;5.40;;
6475;SDS011;3271;51.910;5.840;2024-01-30T11:15:13;9.93;;;6.40;;
6475;SDS011;3271;51.910;5.840;2024-01-30T11:22:45;7.63;;;5.85;;
6475;SDS011;3271;51.910;5.840;2024-01-30T11:25:14;6.78;;;5.63;;
6475;SDS011;3271;51.910;5.840;2024-01-30T11:27:44;8.52;;;5.63;;
6475;SDS011;3271;51.910;5.840;2024-01-30T11:30:10;8.25;;;5.38;;
6475;SDS011;3271;51.910;5.840;2024-01-30T11:32:36;6.22;;;5.55;;
6475;SDS011;3271;51.910;5.840;2024-01-30T11:35:03;7.15;;;4.95;;
6475;SDS011;3271;51.910;5.840;2024-01-30T11:37:31;7.22;;;5.30;;
6475;SDS011;3271;51.910;5.840;2024-01-30T11:39:57;6.15;;;5.50;;
6475;SDS011;3271;51.910;5.840;2024-01-30T11:42:24;6.57;;;5.10;;
6475;SDS011;3271;51.910;5.840;2024-01-30T11:44:50;11.10;;;7.22;;
6475;SDS011;3271;51.910;5.840;2024-01-30T11:47:16;6.35;;;5.35;;
6475;SDS011;3271;51.910;5.840;2024-01-30T11:49:43;7.90;;;6.35;;
6475;SDS011;3271;51.910;5.840;2024-01-30T11:52:09;7.70;;;6.10;;
6475;SDS011;3271;51.910;5.840;2024-01-30T11:54:35;6.88;;;6.00;;
6475;SDS011;3271;51.910;5.840;2024-01-30T11:57:01;7.45;;;5.97;;
6475;SDS011;3271;51.910;5.840;2024-01-30T11:59:27;6.07;;;5.43;;
6475;SDS011;3271;51.910;5.840;2024-01-30T12:01:53;6.95;;;5.85;;
6475;SDS011;3271;51.910;5.840;2024-01-30T12:04:19;6.15;;;5.53;;
6475;SDS011;3271;51.910;5.840;2024-01-30T12:06:45;10.07;;;5.80;;
6475;SDS011;3271;51.910;5.840;2024-01-30T12:09:16;6.72;;;5.32;;
6475;SDS011;3271;51.910;5.840;2024-01-30T12:11:48;9.32;;;6.72;;
6475;SDS011;3271;51.910;5.840;2024-01-30T12:14:15;8.18;;;5.97;;
6475;SDS011;3271;51.910;5.840;2024-01-30T12:16:41;8.02;;;6.03;;
6475;SDS011;3271;51.910;5.840;2024-01-30T12:19:07;7.45;;;5.93;;
6475;SDS011;3271;51.910;5.840;2024-01-30T12:21:34;6.90;;;5.18;;
6475;SDS011;3271;51.910;5.840;2024-01-30T12:24:01;8.65;;;5.85;;
6475;SDS011;3271;51.910;5.840;2024-01-30T12:26:27;6.70;;;5.57;;
6475;SDS011;3271;51.910;5.840;2024-01-30T12:28:56;5.80;;;5.05;;
6475;SDS011;3271;51.910;5.840;2024-01-30T12:31:31;5.40;;;3.97;;
6475;SDS011;3271;51.910;5.840;2024-01-30T12:33:59;3.95;;;2.92;;
6475;SDS011;3271;51.910;5.840;2024-01-30T12:36:25;3.70;;;3.28;;
6475;SDS011;3271;51.910;5.840;2024-01-30T12:38:51;5.22;;;3.20;;
6475;SDS011;3271;51.910;5.840;2024-01-30T12:41:17;6.50;;;2.70;;
6475;SDS011;3271;51.910;5.840;2024-01-30T12:43:44;5.47;;;2.65;;
6475;SDS011;3271;51.910;5.840;2024-01-30T12:46:10;6.13;;;3.13;;
6475;SDS011;3271;51.910;5.840;2024-01-30T12:48:36;6.40;;;3.17;;
6475;SDS011;3271;51.910;5.840;2024-01-30T12:51:02;3.67;;;2.63;;
6475;SDS011;3271;51.910;5.840;2024-01-30T12:53:29;3.78;;;2.97;;
6475;SDS011;3271;51.910;5.840;2024-01-30T12:55:55;3.88;;;2.42;;
6475;SDS011;3271;51.910;5.840;2024-01-30T12:58:21;3.80;;;2.45;;
6475;SDS011;3271;51.910;5.840;2024-01-30T13:00:47;5.57;;;2.35;;
6475;SDS011;3271;51.910;5.840;2024-01-30T13:03:13;4.40;;;2.30;;
6475;SDS011;3271;51.910;5.840;2024-01-30T13:05:39;3.95;;;2.20;;
6475;SDS011;3271;51.910;5.840;2024-01-30T13:08:05;3.33;;;2.13;;
6475;SDS011;3271;51.910;5.840;2024-01-30T13:10:31;4.45;;;2.30;;
6475;SDS011;3271;51.910;5.840;2024-01-30T13:12:57;6.10;;;2.50;;
6475;SDS011;3271;51.910;5.840;2024-01-30T13:15:23;4.05;;;2.15;;
6475;SDS011;3271;51.910;5.840;2024-01-30T13:17:49;2.40;;;1.80;;
6475;SDS011;3271;51.910;5.840;2024-01-30T13:20:17;10.35;;;5.63;;
6475;SDS011;3271;51.910;5.840;2024-01-30T13:22:46;6.40;;;5.00;;
6475;SDS011;3271;51.910;5.840;2024-01-30T13:25:13;2.50;;;1.50;;
6475;SDS011;3271;51.910;5.840;2024-01-30T13:27:39;2.60;;;1.15;;
6475;SDS011;3271;51.910;5.840;2024-01-30T13:30:06;2.25;;;0.90;;
6475;SDS011;3271;51.910;5.840;2024-01-30T13:32:33;1.67;;;0.90;;
6475;SDS011;3271;51.910;5.840;2024-01-30T13:34:59;2.35;;;0.90;;
6475;SDS011;3271;51.910;5.840;2024-01-30T13:37:25;3.67;;;0.90;;
6475;SDS011;3271;51.910;5.840;2024-01-30T13:39:51;1.40;;;1.05;;
6475;SDS011;3271;51.910;5.840;2024-01-30T13:42:16;2.30;;;1.10;;
6475;SDS011;3271;51.910;5.840;2024-01-30T13:44:42;1.63;;;1.17;;
6475;SDS011;3271;51.910;5.840;2024-01-30T13:47:09;2.88;;;0.93;;
6475;SDS011;3271;51.910;5.840;2024-01-30T13:49:35;2.90;;;1.10;;
6475;SDS011;3271;51.910;5.840;2024-01-30T13:52:01;4.20;;;1.30;;
6475;SDS011;3271;51.910;5.840;2024-01-30T13:54:28;3.50;;;1.73;;
6475;SDS011;3271;51.910;5.840;2024-01-30T13:56:55;4.38;;;2.65;;
6475;SDS011;3271;51.910;5.840;2024-01-30T13:59:21;5.10;;;2.55;;
6475;SDS011;3271;51.910;5.840;2024-01-30T14:01:49;6.40;;;2.30;;
6475;SDS011;3271;51.910;5.840;2024-01-30T14:04:15;4.10;;;2.60;;
6475;SDS011;3271;51.910;5.840;2024-01-30T14:06:41;5.70;;;2.85;;
6475;SDS011;3271;51.910;5.840;2024-01-30T14:09:07;4.47;;;2.88;;
6475;SDS011;3271;51.910;5.840;2024-01-30T14:11:35;5.63;;;2.95;;
6475;SDS011;3271;51.910;5.840;2024-01-30T14:14:01;5.63;;;2.97;;
6475;SDS011;3271;51.910;5.840;2024-01-30T14:16:27;7.07;;;3.30;;
6475;SDS011;3271;51.910;5.840;2024-01-30T14:18:53;7.00;;;3.65;;
6475;SDS011;3271;51.910;5.840;2024-01-30T14:21:19;5.40;;;3.28;;
6475;SDS011;3271;51.910;5.840;2024-01-30T14:23:45;4.53;;;3.08;;
6475;SDS011;3271;51.910;5.840;2024-01-30T14:26:12;6.00;;;3.00;;
6475;SDS011;3271;51.910;5.840;2024-01-30T14:28:38;4.70;;;2.65;;
6475;SDS011;3271;51.910;5.840;2024-01-30T14:31:04;6.28;;;2.97;;
6475;SDS011;3271;51.910;5.840;2024-01-30T14:33:30;2.97;;;2.63;;
6475;SDS011;3271;51.910;5.840;2024-01-30T14:35:56;4.45;;;2.72;;
6475;SDS011;3271;51.910;5.840;2024-01-30T14:38:22;3.42;;;2.40;;
6475;SDS011;3271;51.910;5.840;2024-01-30T14:40:50;4.75;;;2.55;;
6475;SDS011;3271;51.910;5.840;2024-01-30T14:43:16;3.70;;;2.38;;
6475;SDS011;3271;51.910;5.840;2024-01-30T14:45:42;3.42;;;2.45;;
6475;SDS011;3271;51.910;5.840;2024-01-30T14:48:10;3.22;;;2.72;;
6475;SDS011;3271;51.910;5.840;2024-01-30T14:50:37;2.67;;;2.42;;
6475;SDS011;3271;51.910;5.840;2024-01-30T14:53:03;3.90;;;2.55;;
6475;SDS011;3271;51.910;5.840;2024-01-30T14:55:29;4.55;;;2.58;;
6475;SDS011;3271;51.910;5.840;2024-01-30T14:57:55;3.05;;;2.50;;
6475;SDS011;3271;51.910;5.840;2024-01-30T15:00:21;4.05;;;2.53;;
6475;SDS011;3271;51.910;5.840;2024-01-30T15:02:47;5.45;;;2.58;;
6475;SDS011;3271;51.910;5.840;2024-01-30T15:05:13;4.05;;;2.20;;
6475;SDS011;3271;51.910;5.840;2024-01-30T15:07:39;5.90;;;2.53;;
6475;SDS011;3271;51.910;5.840;2024-01-30T15:10:05;5.15;;;2.50;;
6475;SDS011;3271;51.910;5.840;2024-01-30T15:12:32;2.50;;;2.00;;
6475;SDS011;3271;51.910;5.840;2024-01-30T15:14:58;2.20;;;1.98;;
6475;SDS011;3271;51.910;5.840;2024-01-30T15:17:24;3.28;;;2.25;;